sensor_id;sensor_type;location;lat;lon;timestamp;temperature;humidity
5978;DHT22;3015;51.390;12.256;2023-02-07T00:01:09;-7.20;1.00
5978;DHT22;3015;51.390;12.256;2023-02-07T00:03:35;-7.20;1.00
5978;DHT22;3015;51.390;12.256;2023-02-07T00:06:06;-7.20;14.20
5978;DHT22;3015;51.390;12.256;2023-02-07T00:08:32;-7.10;47.20
5978;DHT22;3015;51.390;12.256;2023-02-07T00:11:05;-7.10;50.50
5978;DHT22;3015;51.390;12.256;2023-02-07T00:13:31;-7.10;99.90
5978;DHT22;3015;51.390;12.256;2023-02-07T00:15:57;-7.10;1.00
5978;DHT22;3015;51.390;12.256;2023-02-07T00:18:24;-7.20;1.00
5978;DHT22;3015;51.390;12.256;2023-02-07T00:20:57;-7.20;1.00
5978;DHT22;3015;51.390;12.256;2023-02-07T00:23:23;-7.30;1.00
5978;DHT22;3015;51.390;12.256;2023-02-07T00:25:49;-7.30;1.00
5978;DHT22;3015;51.390;12.256;2023-02-07T00:28:14;-7.30;1.00
5978;DHT22;3015;51.390;12.256;2023-02-07T00:30:40;-7.40;1.00
5978;DHT22;3015;51.390;12.256;2023-02-07T00:33:05;-7.40;1.00
5978;DHT22;3015;51.390;12.256;2023-02-07T00:35:31;-7.40;1.00
5978;DHT22;3015;51.390;12.256;2023-02-07T00:37:57;-7.30;74.50
5978;DHT22;3015;51.390;12.256;2023-02-07T00:40:22;-7.30;1.00
5978;DHT22;3015;51.390;12.256;2023-02-07T00:42:48;-7.40;1.00
5978;DHT22;3015;51.390;12.256;2023-02-07T00:45:14;-7.40;1.00
5978;DHT22;3015;51.390;12.256;2023-02-07T00:47:39;-7.50;99.90
5978;DHT22;3015;51.390;12.256;2023-02-07T00:50:05;-7.50;1.00
5978;DHT22;3015;51.390;12.256;2023-02-07T00:52:31;-7.50;1.00
5978;DHT22;3015;51.390;12.256;2023-02-07T00:54:57;-7.50;1.00
5978;DHT22;3015;51.390;12.256;2023-02-07T00:57:22;-7.40;1.00
5978;DHT22;3015;51.390;12.256;2023-02-07T00:59:48;-7.20;99.90
5978;DHT22;3015;51.390;12.256;2023-02-07T01:02:13;-7.00;99.90
5978;DHT22;3015;51.390;12.256;2023-02-07T01:04:39;-6.90;99.90
5978;DHT22;3015;51.390;12.256;2023-02-07T01:07:05;-6.80;99.90
5978;DHT22;3015;51.390;12.256;2023-02-07T01:09:30;-6.80;5.80
5978;DHT22;3015;51.390;12.256;2023-02-07T01:11:56;-6.60;99.90
5978;DHT22;3015;51.390;12.256;2023-02-07T01:14:22;-6.60;99.90
5978;DHT22;3015;51.390;12.256;2023-02-07T01:16:47;-6.50;99.90
5978;DHT22;3015;51.390;12.256;2023-02-07T01:19:14;-6.40;99.90
5978;DHT22;3015;51.390;12.256;2023-02-07T01:21:40;-6.40;99.90
5978;DHT22;3015;51.390;12.256;2023-02-07T01:24:07;-6.40;99.90
5978;DHT22;3015;51.390;12.256;2023-02-07T01:26:33;-6.40;99.90
5978;DHT22;3015;51.390;12.256;2023-02-07T01:28:59;-6.40;99.90
5978;DHT22;3015;51.390;12.256;2023-02-07T01:31:27;-6.30;99.90
5978;DHT22;3015;51.390;12.256;2023-02-07T01:33:54;-6.30;99.90
5978;DHT22;3015;51.390;12.256;2023-02-07T01:36:20;-6.20;99.90
5978;DHT22;3015;51.390;12.256;2023-02-07T01:38:46;-6.20;99.90
5978;DHT22;3015;51.390;12.256;2023-02-07T01:41:12;-6.20;99.90
5978;DHT22;3015;51.390;12.256;2023-02-07T01:46:22;-6.20;99.90
5978;DHT22;3015;51.390;12.256;2023-02-07T01:48:48;-6.30;99.90
5978;DHT22;3015;51.390;12.256;2023-02-07T01:51:15;-6.40;99.90
5978;DHT22;3015;51.390;12.256;2023-02-07T01:53:41;-6.40;99.90
5978;DHT22;3015;51.390;12.256;2023-02-07T01:56:10;-6.30;1.00
5978;DHT22;3015;51.390;12.256;2023-02-07T01:58:37;-6.20;99.90
5978;DHT22;3015;51.390;12.256;2023-02-07T02:01:06;-6.20;1.00
5978;DHT22;3015;51.390;12.256;2023-02-07T02:03:36;-6.30;1.00
5978;DHT22;3015;51.390;12.256;2023-02-07T02:06:05;-6.50;99.90
5978;DHT22;3015;51.390;12.256;2023-02-07T02:08:31;-6.70;99.90
5978;DHT22;3015;51.390;12.256;2023-02-07T02:14:03;-6.80;1.00
5978;DHT22;3015;51.390;12.256;2023-02-07T02:16:51;-6.90;99.90
5978;DHT22;3015;51.390;12.256;2023-02-07T02:36:24;-7.70;99.90
5978;DHT22;3015;51.390;12.256;2023-02-07T02:44:30;-7.80;99.90
5978;DHT22;3015;51.390;12.256;2023-02-07T02:46:58;-7.70;1.00
5978;DHT22;3015;51.390;12.256;2023-02-07T02:49:25;-7.80;99.90
5978;DHT22;3015;51.390;12.256;2023-02-07T02:51:51;-7.90;64.00
5978;DHT22;3015;51.390;12.256;2023-02-07T02:54:26;-7.90;22.90
5978;DHT22;3015;51.390;12.256;2023-02-07T03:00:00;-8.10;99.90
5978;DHT22;3015;51.390;12.256;2023-02-07T03:13:32;-8.30;1.00
5978;DHT22;3015;51.390;12.256;2023-02-07T03:24:05;-8.40;1.00
5978;DHT22;3015;51.390;12.256;2023-02-07T03:26:33;-8.40;1.00
5978;DHT22;3015;51.390;12.256;2023-02-07T03:29:01;-8.50;1.00
5978;DHT22;3015;51.390;12.256;2023-02-07T03:31:29;-8.50;99.90
5978;DHT22;3015;51.390;12.256;2023-02-07T03:34:06;-8.50;99.90
5978;DHT22;3015;51.390;12.256;2023-02-07T03:36:57;-8.30;99.90
5978;DHT22;3015;51.390;12.256;2023-02-07T03:39:25;-8.50;99.90
5978;DHT22;3015;51.390;12.256;2023-02-07T03:42:04;-8.50;99.90
5978;DHT22;3015;51.390;12.256;2023-02-07T03:44:32;-8.60;99.90
5978;DHT22;3015;51.390;12.256;2023-02-07T03:46:59;-8.60;99.90
5978;DHT22;3015;51.390;12.256;2023-02-07T03:49:24;-8.60;99.90
5978;DHT22;3015;51.390;12.256;2023-02-07T03:51:50;-8.60;99.90
5978;DHT22;3015;51.390;12.256;2023-02-07T03:54:16;-8.70;99.90
5978;DHT22;3015;51.390;12.256;2023-02-07T03:56:42;-8.70;1.00
5978;DHT22;3015;51.390;12.256;2023-02-07T03:59:08;-8.40;99.90
5978;DHT22;3015;51.390;12.256;2023-02-07T04:01:34;-8.30;99.90
5978;DHT22;3015;51.390;12.256;2023-02-07T04:04:05;-8.30;1.00
5978;DHT22;3015;51.390;12.256;2023-02-07T04:06:31;-8.50;1.00
5978;DHT22;3015;51.390;12.256;2023-02-07T04:08:57;-8.60;1.00
5978;DHT22;3015;51.390;12.256;2023-02-07T04:11:22;-8.70;1.00
5978;DHT22;3015;51.390;12.256;2023-02-07T04:13:51;-8.70;1.00
5978;DHT22;3015;51.390;12.256;2023-02-07T04:16:16;-8.80;99.90
5978;DHT22;3015;51.390;12.256;2023-02-07T04:18:42;-8.70;1.00
5978;DHT22;3015;51.390;12.256;2023-02-07T04:21:08;-8.70;1.00
5978;DHT22;3015;51.390;12.256;2023-02-07T04:23:34;-8.50;99.90
5978;DHT22;3015;51.390;12.256;2023-02-07T04:26:00;-8.30;99.90
5978;DHT22;3015;51.390;12.256;2023-02-07T04:28:26;-8.20;1.00
5978;DHT22;3015;51.390;12.256;2023-02-07T04:30:52;-8.00;24.10
5978;DHT22;3015;51.390;12.256;2023-02-07T04:33:18;-7.80;1.00
5978;DHT22;3015;51.390;12.256;2023-02-07T04:35:46;-7.60;99.90
5978;DHT22;3015;51.390;12.256;2023-02-07T04:38:17;-7.50;1.00
5978;DHT22;3015;51.390;12.256;2023-02-07T04:40:43;-7.40;99.90
5978;DHT22;3015;51.390;12.256;2023-02-07T04:43:08;-7.30;71.20
5978;DHT22;3015;51.390;12.256;2023-02-07T04:45:34;-7.10;99.90
5978;DHT22;3015;51.390;12.256;2023-02-07T04:48:00;-7.00;99.90
5978;DHT22;3015;51.390;12.256;2023-02-07T04:50:25;-6.80;1.00
5978;DHT22;3015;51.390;12.256;2023-02-07T04:52:51;-6.60;1.00
5978;DHT22;3015;51.390;12.256;2023-02-07T04:55:16;-6.60;1.00
5978;DHT22;3015;51.390;12.256;2023-02-07T04:57:42;-6.40;27.10
5978;DHT22;3015;51.390;12.256;2023-02-07T05:00:08;-6.30;99.90
5978;DHT22;3015;51.390;12.256;2023-02-07T05:02:34;-6.10;99.90
5978;DHT22;3015;51.390;12.256;2023-02-07T05:05:00;-6.10;97.10
5978;DHT22;3015;51.390;12.256;2023-02-07T05:07:26;-6.00;99.90
5978;DHT22;3015;51.390;12.256;2023-02-07T05:09:52;-6.00;99.90
5978;DHT22;3015;51.390;12.256;2023-02-07T05:12:18;-5.80;99.90
5978;DHT22;3015;51.390;12.256;2023-02-07T05:14:44;-5.70;99.90
5978;DHT22;3015;51.390;12.256;2023-02-07T05:17:09;-5.70;99.90
5978;DHT22;3015;51.390;12.256;2023-02-07T05:19:36;-5.70;1.00
5978;DHT22;3015;51.390;12.256;2023-02-07T05:22:02;-5.50;1.00
5978;DHT22;3015;51.390;12.256;2023-02-07T05:24:27;-5.40;1.00
5978;DHT22;3015;51.390;12.256;2023-02-07T05:26:53;-5.40;1.00
5978;DHT22;3015;51.390;12.256;2023-02-07T05:29:18;-5.40;1.00
5978;DHT22;3015;51.390;12.256;2023-02-07T05:31:44;-5.20;1.00
5978;DHT22;3015;51.390;12.256;2023-02-07T05:34:28;-5.30;1.00
5978;DHT22;3015;51.390;12.256;2023-02-07T05:36:54;-5.10;1.00
5978;DHT22;3015;51.390;12.256;2023-02-07T05:39:20;-5.20;1.00
5978;DHT22;3015;51.390;12.256;2023-02-07T05:41:46;-5.10;54.90
5978;DHT22;3015;51.390;12.256;2023-02-07T05:44:12;-4.90;99.90
5978;DHT22;3015;51.390;12.256;2023-02-07T05:46:37;-4.80;99.90
5978;DHT22;3015;51.390;12.256;2023-02-07T05:49:03;-4.70;1.00
5978;DHT22;3015;51.390;12.256;2023-02-07T05:51:28;-4.70;1.00
5978;DHT22;3015;51.390;12.256;2023-02-07T05:53:54;-4.70;1.00
5978;DHT22;3015;51.390;12.256;2023-02-07T05:56:20;-4.70;1.00
5978;DHT22;3015;51.390;12.256;2023-02-07T05:58:45;-4.60;1.00
5978;DHT22;3015;51.390;12.256;2023-02-07T06:01:11;-4.60;40.00
5978;DHT22;3015;51.390;12.256;2023-02-07T06:03:36;-4.50;1.00
5978;DHT22;3015;51.390;12.256;2023-02-07T06:06:02;-4.50;1.00
5978;DHT22;3015;51.390;12.256;2023-02-07T06:08:28;-4.40;99.90
5978;DHT22;3015;51.390;12.256;2023-02-07T06:10:53;-4.60;99.90
5978;DHT22;3015;51.390;12.256;2023-02-07T06:13:19;-4.60;48.90
5978;DHT22;3015;51.390;12.256;2023-02-07T06:15:44;-4.70;41.40
5978;DHT22;3015;51.390;12.256;2023-02-07T06:18:10;-4.70;99.90
5978;DHT22;3015;51.390;12.256;2023-02-07T06:20:36;-4.70;1.00
5978;DHT22;3015;51.390;12.256;2023-02-07T06:23:01;-4.60;1.00
5978;DHT22;3015;51.390;12.256;2023-02-07T06:25:27;-4.60;99.90
5978;DHT22;3015;51.390;12.256;2023-02-07T06:27:52;-4.60;1.00
5978;DHT22;3015;51.390;12.256;2023-02-07T06:30:18;-4.50;99.90
5978;DHT22;3015;51.390;12.256;2023-02-07T06:32:44;-4.50;99.90
5978;DHT22;3015;51.390;12.256;2023-02-07T06:35:09;-4.60;1.00
5978;DHT22;3015;51.390;12.256;2023-02-07T06:37:35;-4.60;57.70
5978;DHT22;3015;51.390;12.256;2023-02-07T06:40:00;-4.70;1.00
5978;DHT22;3015;51.390;12.256;2023-02-07T06:42:27;-4.70;1.00
5978;DHT22;3015;51.390;12.256;2023-02-07T06:44:52;-4.60;99.90
5978;DHT22;3015;51.390;12.256;2023-02-07T06:47:18;-4.50;99.90
5978;DHT22;3015;51.390;12.256;2023-02-07T06:49:45;-4.50;1.00
5978;DHT22;3015;51.390;12.256;2023-02-07T06:52:11;-4.50;1.00
5978;DHT22;3015;51.390;12.256;2023-02-07T06:54:36;-4.40;99.90
5978;DHT22;3015;51.390;12.256;2023-02-07T06:57:02;-4.40;1.00
5978;DHT22;3015;51.390;12.256;2023-02-07T06:59:28;-4.50;99.90
5978;DHT22;3015;51.390;12.256;2023-02-07T07:01:54;-4.50;1.00
5978;DHT22;3015;51.390;12.256;2023-02-07T07:04:19;-4.60;1.00
5978;DHT22;3015;51.390;12.256;2023-02-07T07:06:46;-4.50;99.90
5978;DHT22;3015;51.390;12.256;2023-02-07T07:09:11;-4.60;1.00
5978;DHT22;3015;51.390;12.256;2023-02-07T07:11:38;-4.60;1.00
5978;DHT22;3015;51.390;12.256;2023-02-07T07:14:10;-4.70;1.00
5978;DHT22;3015;51.390;12.256;2023-02-07T07:16:37;-4.70;1.00
5978;DHT22;3015;51.390;12.256;2023-02-07T07:19:02;-4.80;1.00
5978;DHT22;3015;51.390;12.256;2023-02-07T07:21:28;-4.70;99.90
5978;DHT22;3015;51.390;12.256;2023-02-07T07:23:54;-4.60;99.90
5978;DHT22;3015;51.390;12.256;2023-02-07T07:26:20;-4.50;99.90
5978;DHT22;3015;51.390;12.256;2023-02-07T07:28:46;-4.40;94.00
5978;DHT22;3015;51.390;12.256;2023-02-07T07:31:12;-4.40;19.60
5978;DHT22;3015;51.390;12.256;2023-02-07T07:33:38;-4.40;16.20
5978;DHT22;3015;51.390;12.256;2023-02-07T07:36:04;-4.30;99.90
5978;DHT22;3015;51.390;12.256;2023-02-07T07:38:30;-4.20;99.90
5978;DHT22;3015;51.390;12.256;2023-02-07T07:40:57;-4.30;1.00
5978;DHT22;3015;51.390;12.256;2023-02-07T07:43:23;-4.30;1.00
5978;DHT22;3015;51.390;12.256;2023-02-07T07:45:54;-4.30;99.90
5978;DHT22;3015;51.390;12.256;2023-02-07T07:48:21;-4.30;1.00
5978;DHT22;3015;51.390;12.256;2023-02-07T07:50:47;-4.20;1.00
5978;DHT22;3015;51.390;12.256;2023-02-07T07:53:14;-4.20;1.00
5978;DHT22;3015;51.390;12.256;2023-02-07T07:55:40;-4.20;1.00
5978;DHT22;3015;51.390;12.256;2023-02-07T07:58:06;-4.20;99.90
5978;DHT22;3015;51.390;12.256;2023-02-07T08:00:32;-4.30;1.00
5978;DHT22;3015;51.390;12.256;2023-02-07T08:02:58;-4.20;1.00
5978;DHT22;3015;51.390;12.256;2023-02-07T08:05:23;-4.10;99.90
5978;DHT22;3015;51.390;12.256;2023-02-07T08:07:49;-4.10;99.90
5978;DHT22;3015;51.390;12.256;2023-02-07T08:10:15;-4.20;99.90
5978;DHT22;3015;51.390;12.256;2023-02-07T08:12:41;-4.30;1.00
5978;DHT22;3015;51.390;12.256;2023-02-07T08:15:07;-4.20;1.00
5978;DHT22;3015;51.390;12.256;2023-02-07T08:17:34;-4.10;1.00
5978;DHT22;3015;51.390;12.256;2023-02-07T08:20:01;-4.10;1.00
5978;DHT22;3015;51.390;12.256;2023-02-07T08:22:27;-4.10;15.30
5978;DHT22;3015;51.390;12.256;2023-02-07T08:24:52;-4.10;99.90
5978;DHT22;3015;51.390;12.256;2023-02-07T08:27:18;-3.90;1.00
5978;DHT22;3015;51.390;12.256;2023-02-07T08:29:44;-3.80;1.00
5978;DHT22;3015;51.390;12.256;2023-02-07T08:32:10;-3.70;99.90
5978;DHT22;3015;51.390;12.256;2023-02-07T08:34:36;-3.60;99.90
5978;DHT22;3015;51.390;12.256;2023-02-07T08:37:03;-3.50;99.90
5978;DHT22;3015;51.390;12.256;2023-02-07T08:39:29;-3.40;99.90
5978;DHT22;3015;51.390;12.256;2023-02-07T08:41:55;-3.30;99.90
5978;DHT22;3015;51.390;12.256;2023-02-07T08:44:21;-3.30;99.90
5978;DHT22;3015;51.390;12.256;2023-02-07T08:46:46;-3.20;1.00
5978;DHT22;3015;51.390;12.256;2023-02-07T08:49:12;-3.20;1.00
5978;DHT22;3015;51.390;12.256;2023-02-07T08:51:38;-3.10;99.90
5978;DHT22;3015;51.390;12.256;2023-02-07T08:54:03;-3.10;99.90
5978;DHT22;3015;51.390;12.256;2023-02-07T08:56:29;-3.10;99.90
5978;DHT22;3015;51.390;12.256;2023-02-07T08:58:54;-3.00;99.90
5978;DHT22;3015;51.390;12.256;2023-02-07T09:01:20;-2.80;1.00
5978;DHT22;3015;51.390;12.256;2023-02-07T09:03:46;-3.00;33.10
5978;DHT22;3015;51.390;12.256;2023-02-07T09:06:12;-2.90;1.00
5978;DHT22;3015;51.390;12.256;2023-02-07T09:08:38;-2.80;99.90
5978;DHT22;3015;51.390;12.256;2023-02-07T09:11:04;-2.70;1.00
5978;DHT22;3015;51.390;12.256;2023-02-07T09:13:29;-2.60;1.00
5978;DHT22;3015;51.390;12.256;2023-02-07T09:15:56;-2.50;99.90
5978;DHT22;3015;51.390;12.256;2023-02-07T09:18:23;-2.50;99.90
5978;DHT22;3015;51.390;12.256;2023-02-07T09:20:49;-2.50;1.00
5978;DHT22;3015;51.390;12.256;2023-02-07T09:23:15;-2.60;99.90
5978;DHT22;3015;51.390;12.256;2023-02-07T09:25:51;-2.60;99.90
5978;DHT22;3015;51.390;12.256;2023-02-07T09:28:17;-2.70;99.90
5978;DHT22;3015;51.390;12.256;2023-02-07T09:30:45;-2.60;99.90
5978;DHT22;3015;51.390;12.256;2023-02-07T09:33:12;-2.60;99.90
5978;DHT22;3015;51.390;12.256;2023-02-07T09:35:44;-2.60;1.00
5978;DHT22;3015;51.390;12.256;2023-02-07T09:38:19;-2.80;99.90
5978;DHT22;3015;51.390;12.256;2023-02-07T09:40:47;-2.60;62.80
5978;DHT22;3015;51.390;12.256;2023-02-07T09:43:37;-2.50;1.00
5978;DHT22;3015;51.390;12.256;2023-02-07T09:49:16;-2.20;1.00
5978;DHT22;3015;51.390;12.256;2023-02-07T09:51:48;-2.10;57.50
5978;DHT22;3015;51.390;12.256;2023-02-07T09:57:04;-2.10;99.90
5978;DHT22;3015;51.390;12.256;2023-02-07T09:59:57;-2.10;1.00
5978;DHT22;3015;51.390;12.256;2023-02-07T10:02:35;-1.90;99.90
5978;DHT22;3015;51.390;12.256;2023-02-07T10:05:10;-1.80;99.90
5978;DHT22;3015;51.390;12.256;2023-02-07T10:07:38;-1.60;1.00
5978;DHT22;3015;51.390;12.256;2023-02-07T10:10:16;-1.70;99.90
5978;DHT22;3015;51.390;12.256;2023-02-07T10:12:56;-1.60;11.20
5978;DHT22;3015;51.390;12.256;2023-02-07T10:21:19;-1.70;99.90
5978;DHT22;3015;51.390;12.256;2023-02-07T10:26:26;-1.90;40.40
5978;DHT22;3015;51.390;12.256;2023-02-07T10:31:50;-1.90;99.90
5978;DHT22;3015;51.390;12.256;2023-02-07T10:34:25;-1.90;99.90
5978;DHT22;3015;51.390;12.256;2023-02-07T10:36:55;-1.90;99.90
5978;DHT22;3015;51.390;12.256;2023-02-07T10:39:35;-1.90;99.90
5978;DHT22;3015;51.390;12.256;2023-02-07T10:42:02;-1.90;1.00
5978;DHT22;3015;51.390;12.256;2023-02-07T10:44:27;-1.90;1.00
5978;DHT22;3015;51.390;12.256;2023-02-07T10:47:01;-2.00;99.90
5978;DHT22;3015;51.390;12.256;2023-02-07T10:49:31;-2.00;19.90
5978;DHT22;3015;51.390;12.256;2023-02-07T10:52:02;-2.00;99.90
5978;DHT22;3015;51.390;12.256;2023-02-07T10:54:54;-2.10;1.00
5978;DHT22;3015;51.390;12.256;2023-02-07T10:57:21;-2.20;1.00
5978;DHT22;3015;51.390;12.256;2023-02-07T10:59:47;-2.10;1.00
5978;DHT22;3015;51.390;12.256;2023-02-07T11:02:35;-2.10;99.90
5978;DHT22;3015;51.390;12.256;2023-02-07T11:05:25;-2.10;1.00
5978;DHT22;3015;51.390;12.256;2023-02-07T11:10:38;-2.20;1.00
5978;DHT22;3015;51.390;12.256;2023-02-07T11:13:21;-2.10;99.90
5978;DHT22;3015;51.390;12.256;2023-02-07T11:18:34;-2.10;1.00
5978;DHT22;3015;51.390;12.256;2023-02-07T11:21:51;-1.90;99.90
5978;DHT22;3015;51.390;12.256;2023-02-07T11:23:52;-1.70;1.00
5978;DHT22;3015;51.390;12.256;2023-02-07T11:26:19;-1.50;99.90
5978;DHT22;3015;51.390;12.256;2023-02-07T11:28:53;-1.40;99.90
5978;DHT22;3015;51.390;12.256;2023-02-07T11:31:28;-1.30;99.90
5978;DHT22;3015;51.390;12.256;2023-02-07T11:34:06;-1.20;17.50
5978;DHT22;3015;51.390;12.256;2023-02-07T11:36:33;-1.10;99.90
5978;DHT22;3015;51.390;12.256;2023-02-07T11:38:59;-1.10;99.90
5978;DHT22;3015;51.390;12.256;2023-02-07T11:41:30;-1.20;99.90
5978;DHT22;3015;51.390;12.256;2023-02-07T11:44:01;-1.10;99.90
5978;DHT22;3015;51.390;12.256;2023-02-07T11:46:38;-1.00;99.90
5978;DHT22;3015;51.390;12.256;2023-02-07T11:49:16;-0.90;1.00
5978;DHT22;3015;51.390;12.256;2023-02-07T11:51:42;-0.80;1.00
5978;DHT22;3015;51.390;12.256;2023-02-07T11:54:10;-0.80;99.90
5978;DHT22;3015;51.390;12.256;2023-02-07T11:56:42;-0.70;1.00
5978;DHT22;3015;51.390;12.256;2023-02-07T11:59:27;-0.60;99.90
5978;DHT22;3015;51.390;12.256;2023-02-07T12:01:56;-0.60;1.00
5978;DHT22;3015;51.390;12.256;2023-02-07T12:04:28;-0.40;99.90
5978;DHT22;3015;51.390;12.256;2023-02-07T12:07:00;-0.50;99.90
5978;DHT22;3015;51.390;12.256;2023-02-07T12:11:59;-0.50;1.00
5978;DHT22;3015;51.390;12.256;2023-02-07T12:14:42;-0.40;1.00
5978;DHT22;3015;51.390;12.256;2023-02-07T12:17:25;-0.40;1.00
5978;DHT22;3015;51.390;12.256;2023-02-07T12:19:55;-0.40;97.60
5978;DHT22;3015;51.390;12.256;2023-02-07T12:22:26;-0.60;62.00
5978;DHT22;3015;51.390;12.256;2023-02-07T12:25:17;-0.60;99.90
5978;DHT22;3015;51.390;12.256;2023-02-07T12:27:47;-0.80;1.00
5978;DHT22;3015;51.390;12.256;2023-02-07T12:30:35;-0.70;1.00
5978;DHT22;3015;51.390;12.256;2023-02-07T12:33:23;-0.60;1.00
5978;DHT22;3015;51.390;12.256;2023-02-07T12:36:25;-0.70;84.10
5978;DHT22;3015;51.390;12.256;2023-02-07T12:38:55;-0.50;1.00
5978;DHT22;3015;51.390;12.256;2023-02-07T12:41:26;-0.60;1.00
5978;DHT22;3015;51.390;12.256;2023-02-07T12:44:37;-0.70;1.00
5978;DHT22;3015;51.390;12.256;2023-02-07T12:46:59;-0.70;99.90
5978;DHT22;3015;51.390;12.256;2023-02-07T12:55:27;-0.50;1.00
5978;DHT22;3015;51.390;12.256;2023-02-07T13:00:47;-0.60;1.00
5978;DHT22;3015;51.390;12.256;2023-02-07T13:12:03;-0.30;33.90
5978;DHT22;3015;51.390;12.256;2023-02-07T13:14:53;-0.20;99.90
5978;DHT22;3015;51.390;12.256;2023-02-07T13:20:26;-0.20;99.90
5978;DHT22;3015;51.390;12.256;2023-02-07T13:23:04;0.00;99.90
5978;DHT22;3015;51.390;12.256;2023-02-07T13:25:39;0.00;99.90
5978;DHT22;3015;51.390;12.256;2023-02-07T13:29:12;0.00;99.90
5978;DHT22;3015;51.390;12.256;2023-02-07T13:31:08;0.10;99.90
5978;DHT22;3015;51.390;12.256;2023-02-07T13:33:37;0.20;99.90
5978;DHT22;3015;51.390;12.256;2023-02-07T13:36:13;0.30;99.90
5978;DHT22;3015;51.390;12.256;2023-02-07T13:47:47;0.50;1.00
5978;DHT22;3015;51.390;12.256;2023-02-07T13:55:40;0.50;99.90
5978;DHT22;3015;51.390;12.256;2023-02-07T14:01:22;1.00;58.20
5978;DHT22;3015;51.390;12.256;2023-02-07T14:04:02;1.00;1.00
5978;DHT22;3015;51.390;12.256;2023-02-07T14:06:31;1.20;1.00
5978;DHT22;3015;51.390;12.256;2023-02-07T14:09:02;1.20;1.00
5978;DHT22;3015;51.390;12.256;2023-02-07T14:11:40;1.30;1.00
5978;DHT22;3015;51.390;12.256;2023-02-07T14:14:26;1.30;1.00
5978;DHT22;3015;51.390;12.256;2023-02-07T14:17:00;1.20;1.00
5978;DHT22;3015;51.390;12.256;2023-02-07T14:38:08;0.00;75.90
5978;DHT22;3015;51.390;12.256;2023-02-07T14:46:02;-0.10;99.90
5978;DHT22;3015;51.390;12.256;2023-02-07T14:51:18;0.10;99.90
5978;DHT22;3015;51.390;12.256;2023-02-07T14:56:43;0.10;99.90
5978;DHT22;3015;51.390;12.256;2023-02-07T14:59:13;0.10;99.90
5978;DHT22;3015;51.390;12.256;2023-02-07T15:01:41;0.10;99.90
5978;DHT22;3015;51.390;12.256;2023-02-07T15:04:08;0.10;99.90
5978;DHT22;3015;51.390;12.256;2023-02-07T15:06:41;0.10;99.90
5978;DHT22;3015;51.390;12.256;2023-02-07T15:09:18;-0.10;99.90
5978;DHT22;3015;51.390;12.256;2023-02-07T15:11:45;-0.30;99.90
5978;DHT22;3015;51.390;12.256;2023-02-07T15:14:20;-0.60;99.90
5978;DHT22;3015;51.390;12.256;2023-02-07T15:16:48;-0.80;1.00
5978;DHT22;3015;51.390;12.256;2023-02-07T15:19:21;-0.90;1.00
5978;DHT22;3015;51.390;12.256;2023-02-07T15:21:50;-1.00;1.00
5978;DHT22;3015;51.390;12.256;2023-02-07T15:24:26;-1.10;51.80
5978;DHT22;3015;51.390;12.256;2023-02-07T15:26:59;-1.30;62.10
5978;DHT22;3015;51.390;12.256;2023-02-07T15:29:31;-1.50;1.00
5978;DHT22;3015;51.390;12.256;2023-02-07T15:31:57;-1.50;1.00
5978;DHT22;3015;51.390;12.256;2023-02-07T15:34:26;-1.60;1.00
5978;DHT22;3015;51.390;12.256;2023-02-07T15:36:58;-1.60;99.90
5978;DHT22;3015;51.390;12.256;2023-02-07T15:39:26;-1.80;1.00
5978;DHT22;3015;51.390;12.256;2023-02-07T15:41:54;-1.80;99.90
5978;DHT22;3015;51.390;12.256;2023-02-07T15:44:22;-1.80;99.90
5978;DHT22;3015;51.390;12.256;2023-02-07T15:46:56;-1.90;31.20
5978;DHT22;3015;51.390;12.256;2023-02-07T15:49:35;-2.10;99.90
5978;DHT22;3015;51.390;12.256;2023-02-07T15:52:24;-2.10;1.00
5978;DHT22;3015;51.390;12.256;2023-02-07T15:54:53;-2.20;38.50
5978;DHT22;3015;51.390;12.256;2023-02-07T15:57:35;-2.30;99.90
5978;DHT22;3015;51.390;12.256;2023-02-07T16:00:15;-2.40;1.00
5978;DHT22;3015;51.390;12.256;2023-02-07T16:02:58;-2.40;1.00
5978;DHT22;3015;51.390;12.256;2023-02-07T16:05:35;-2.50;1.00
5978;DHT22;3015;51.390;12.256;2023-02-07T16:08:04;-2.50;99.90
5978;DHT22;3015;51.390;12.256;2023-02-07T16:10:36;-2.40;42.40
5978;DHT22;3015;51.390;12.256;2023-02-07T16:13:21;-2.40;1.00
5978;DHT22;3015;51.390;12.256;2023-02-07T16:16:05;-2.40;99.90
5978;DHT22;3015;51.390;12.256;2023-02-07T16:18:42;-2.40;99.90
5978;DHT22;3015;51.390;12.256;2023-02-07T16:23:45;-2.60;1.00
5978;DHT22;3015;51.390;12.256;2023-02-07T16:26:11;-2.70;99.90
5978;DHT22;3015;51.390;12.256;2023-02-07T16:28:37;-2.90;1.00
5978;DHT22;3015;51.390;12.256;2023-02-07T16:31:03;-2.90;99.90
5978;DHT22;3015;51.390;12.256;2023-02-07T16:33:29;-2.80;71.90
5978;DHT22;3015;51.390;12.256;2023-02-07T16:35:54;-2.80;30.40
5978;DHT22;3015;51.390;12.256;2023-02-07T16:38:20;-2.70;99.90
5978;DHT22;3015;51.390;12.256;2023-02-07T16:40:45;-2.60;1.00
5978;DHT22;3015;51.390;12.256;2023-02-07T16:46:02;-2.80;99.90
5978;DHT22;3015;51.390;12.256;2023-02-07T16:48:28;-2.80;1.00
5978;DHT22;3015;51.390;12.256;2023-02-07T16:50:53;-2.70;1.00
5978;DHT22;3015;51.390;12.256;2023-02-07T16:53:19;-2.50;1.00
5978;DHT22;3015;51.390;12.256;2023-02-07T16:55:44;-2.40;1.00
5978;DHT22;3015;51.390;12.256;2023-02-07T16:58:21;-2.50;90.50
5978;DHT22;3015;51.390;12.256;2023-02-07T17:00:48;-2.40;99.90
5978;DHT22;3015;51.390;12.256;2023-02-07T17:03:14;-2.30;1.00
5978;DHT22;3015;51.390;12.256;2023-02-07T17:05:40;-2.30;38.70
5978;DHT22;3015;51.390;12.256;2023-02-07T17:08:06;-2.30;1.00
5978;DHT22;3015;51.390;12.256;2023-02-07T17:10:31;-2.40;49.00
5978;DHT22;3015;51.390;12.256;2023-02-07T17:12:58;-2.30;1.00
5978;DHT22;3015;51.390;12.256;2023-02-07T17:15:24;-2.30;1.00
5978;DHT22;3015;51.390;12.256;2023-02-07T17:17:49;-2.40;99.90
5978;DHT22;3015;51.390;12.256;2023-02-07T17:20:25;-2.30;99.90
5978;DHT22;3015;51.390;12.256;2023-02-07T17:22:52;-2.40;99.90
5978;DHT22;3015;51.390;12.256;2023-02-07T17:25:19;-2.30;1.00
5978;DHT22;3015;51.390;12.256;2023-02-07T17:27:46;-2.30;27.70
5978;DHT22;3015;51.390;12.256;2023-02-07T17:30:33;-2.40;1.00
5978;DHT22;3015;51.390;12.256;2023-02-07T17:33:03;-2.40;99.90
5978;DHT22;3015;51.390;12.256;2023-02-07T17:35:28;-2.50;1.00
5978;DHT22;3015;51.390;12.256;2023-02-07T17:37:54;-2.40;1.00
5978;DHT22;3015;51.390;12.256;2023-02-07T17:42:45;-2.40;99.90
5978;DHT22;3015;51.390;12.256;2023-02-07T17:45:11;-2.50;99.90
5978;DHT22;3015;51.390;12.256;2023-02-07T17:47:36;-2.50;1.00
5978;DHT22;3015;51.390;12.256;2023-02-07T17:50:02;-2.50;1.00
5978;DHT22;3015;51.390;12.256;2023-02-07T17:52:28;-2.40;13.90
5978;DHT22;3015;51.390;12.256;2023-02-07T17:54:54;-2.30;1.00
5978;DHT22;3015;51.390;12.256;2023-02-07T17:57:20;-2.50;1.00
5978;DHT22;3015;51.390;12.256;2023-02-07T17:59:45;-2.50;1.00
5978;DHT22;3015;51.390;12.256;2023-02-07T18:02:11;-2.50;1.00
5978;DHT22;3015;51.390;12.256;2023-02-07T18:04:36;-2.70;1.00
5978;DHT22;3015;51.390;12.256;2023-02-07T18:07:02;-2.70;6.50
5978;DHT22;3015;51.390;12.256;2023-02-07T18:09:28;-2.60;1.00
5978;DHT22;3015;51.390;12.256;2023-02-07T18:11:54;-2.60;1.00
5978;DHT22;3015;51.390;12.256;2023-02-07T18:14:20;-2.70;24.20
5978;DHT22;3015;51.390;12.256;2023-02-07T18:16:45;-2.70;1.00
5978;DHT22;3015;51.390;12.256;2023-02-07T18:19:15;-2.60;1.00
5978;DHT22;3015;51.390;12.256;2023-02-07T18:21:41;-2.70;1.00
5978;DHT22;3015;51.390;12.256;2023-02-07T18:24:07;-2.60;99.90
5978;DHT22;3015;51.390;12.256;2023-02-07T18:26:33;-2.70;1.00
5978;DHT22;3015;51.390;12.256;2023-02-07T18:28:58;-2.60;1.00
5978;DHT22;3015;51.390;12.256;2023-02-07T18:31:25;-2.60;1.00
5978;DHT22;3015;51.390;12.256;2023-02-07T18:33:52;-2.60;1.00
5978;DHT22;3015;51.390;12.256;2023-02-07T18:36:19;-2.70;99.90
5978;DHT22;3015;51.390;12.256;2023-02-07T18:38:45;-2.70;99.90